sensor_id;sensor_type;location;lat;lon;timestamp;pressure;altitude;pressure_sealevel;temperature;humidity
9717;BME280;4897;43.570;27.832;2024-02-26T00:00:12;98915.47;;;8.18;100.00
9717;BME280;4897;43.570;27.832;2024-02-26T00:02:39;98908.69;;;8.14;100.00
9717;BME280;4897;43.570;27.832;2024-02-26T00:05:08;98926.00;;;8.08;100.00
9717;BME280;4897;43.570;27.832;2024-02-26T00:07:35;98895.41;;;8.03;100.00
9717;BME280;4897;43.570;27.832;2024-02-26T00:10:03;98908.19;;;8.20;100.00
9717;BME280;4897;43.570;27.832;2024-02-26T00:12:30;98906.25;;;8.22;100.00
9717;BME280;4897;43.570;27.832;2024-02-26T00:14:57;98909.06;;;8.21;100.00
9717;BME280;4897;43.570;27.832;2024-02-26T00:17:27;98891.03;;;8.13;100.00
9717;BME280;4897;43.570;27.832;2024-02-26T00:19:57;98913.78;;;8.17;100.00
9717;BME280;4897;43.570;27.832;2024-02-26T00:22:25;98904.44;;;8.12;100.00
9717;BME280;4897;43.570;27.832;2024-02-26T00:24:52;98896.34;;;8.02;100.00
9717;BME280;4897;43.570;27.832;2024-02-26T00:27:19;98897.44;;;7.99;100.00
9717;BME280;4897;43.570;27.832;2024-02-26T00:29:46;98881.31;;;7.79;100.00
9717;BME280;4897;43.570;27.832;2024-02-26T00:32:13;98887.63;;;7.78;100.00
9717;BME280;4897;43.570;27.832;2024-02-26T00:34:40;98899.13;;;7.89;100.00
9717;BME280;4897;43.570;27.832;2024-02-26T00:37:07;98880.63;;;7.88;100.00
9717;BME280;4897;43.570;27.832;2024-02-26T00:39:36;98889.31;;;8.12;100.00
9717;BME280;4897;43.570;27.832;2024-02-26T00:42:03;98881.22;;;8.14;100.00
9717;BME280;4897;43.570;27.832;2024-02-26T00:44:30;98880.25;;;8.03;100.00
9717;BME280;4897;43.570;27.832;2024-02-26T00:46:57;98870.34;;;7.94;100.00
9717;BME280;4897;43.570;27.832;2024-02-26T00:49:24;98871.41;;;7.92;100.00
9717;BME280;4897;43.570;27.832;2024-02-26T00:51:51;98874.81;;;7.94;100.00
9717;BME280;4897;43.570;27.832;2024-02-26T00:54:18;98863.91;;;7.97;100.00
9717;BME280;4897;43.570;27.832;2024-02-26T00:56:46;98868.03;;;7.90;100.00
9717;BME280;4897;43.570;27.832;2024-02-26T00:59:13;98874.81;;;7.94;100.00
9717;BME280;4897;43.570;27.832;2024-02-26T01:01:40;98879.75;;;7.87;100.00
9717;BME280;4897;43.570;27.832;2024-02-26T01:04:07;98868.53;;;7.84;100.00
9717;BME280;4897;43.570;27.832;2024-02-26T01:06:34;98849.75;;;7.63;100.00
9717;BME280;4897;43.570;27.832;2024-02-26T01:09:02;98866.09;;;7.81;100.00
9717;BME280;4897;43.570;27.832;2024-02-26T01:11:29;98861.47;;;7.61;100.00
9717;BME280;4897;43.570;27.832;2024-02-26T01:13:58;98870.09;;;7.75;100.00
9717;BME280;4897;43.570;27.832;2024-02-26T01:16:25;98780.00;;;7.14;100.00
9717;BME280;4897;43.570;27.832;2024-02-26T01:18:57;98820.09;;;7.46;100.00
9717;BME280;4897;43.570;27.832;2024-02-26T01:21:24;98859.78;;;7.71;100.00
9717;BME280;4897;43.570;27.832;2024-02-26T01:23:52;98861.72;;;7.69;100.00
9717;BME280;4897;43.570;27.832;2024-02-26T01:26:19;98859.28;;;7.66;100.00
9717;BME280;4897;43.570;27.832;2024-02-26T01:28:48;98859.44;;;7.75;100.00
9717;BME280;4897;43.570;27.832;2024-02-26T01:31:16;98840.44;;;7.80;100.00
9717;BME280;4897;43.570;27.832;2024-02-26T01:33:43;98816.25;;;7.61;100.00
9717;BME280;4897;43.570;27.832;2024-02-26T01:36:10;98837.75;;;7.58;100.00
9717;BME280;4897;43.570;27.832;2024-02-26T01:38:37;98820.09;;;7.46;100.00
9717;BME280;4897;43.570;27.832;2024-02-26T01:41:04;98844.31;;;7.65;100.00
9717;BME280;4897;43.570;27.832;2024-02-26T01:43:32;98844.66;;;7.60;100.00
9717;BME280;4897;43.570;27.832;2024-02-26T01:45:58;98653.00;;;6.27;100.00
9717;BME280;4897;43.570;27.832;2024-02-26T01:48:27;98851.09;;;7.69;100.00
9717;BME280;4897;43.570;27.832;2024-02-26T01:50:54;98831.13;;;7.63;100.00
9717;BME280;4897;43.570;27.832;2024-02-26T01:53:21;98845.88;;;7.67;100.00
9717;BME280;4897;43.570;27.832;2024-02-26T01:55:48;98845.13;;;7.54;100.00
9717;BME280;4897;43.570;27.832;2024-02-26T01:58:16;98839.91;;;7.42;100.00
9717;BME280;4897;43.570;27.832;2024-02-26T02:00:43;98859.25;;;7.44;100.00
9717;BME280;4897;43.570;27.832;2024-02-26T02:03:10;98851.88;;;7.47;100.00
9717;BME280;4897;43.570;27.832;2024-02-26T02:05:38;98862.19;;;7.52;100.00
9717;BME280;4897;43.570;27.832;2024-02-26T02:08:10;98814.34;;;7.17;100.00
9717;BME280;4897;43.570;27.832;2024-02-26T02:10:38;98857.81;;;7.40;100.00
9717;BME280;4897;43.570;27.832;2024-02-26T02:13:05;98859.22;;;7.33;100.00
9717;BME280;4897;43.570;27.832;2024-02-26T02:15:32;98861.63;;;7.24;100.00
9717;BME280;4897;43.570;27.832;2024-02-26T02:17:59;98851.47;;;7.18;100.00
9717;BME280;4897;43.570;27.832;2024-02-26T02:20:31;98867.66;;;7.26;100.00
9717;BME280;4897;43.570;27.832;2024-02-26T02:22:59;98838.94;;;7.32;100.00
9717;BME280;4897;43.570;27.832;2024-02-26T02:25:26;98846.53;;;7.25;100.00
9717;BME280;4897;43.570;27.832;2024-02-26T02:27:54;98852.78;;;7.24;100.00
9717;BME280;4897;43.570;27.832;2024-02-26T02:30:24;98864.06;;;7.28;100.00
9717;BME280;4897;43.570;27.832;2024-02-26T02:32:52;98836.09;;;7.11;100.00
9717;BME280;4897;43.570;27.832;2024-02-26T02:35:20;98865.13;;;7.25;100.00
9717;BME280;4897;43.570;27.832;2024-02-26T02:37:48;98788.03;;;6.79;100.00
9717;BME280;4897;43.570;27.832;2024-02-26T02:40:15;98862.44;;;7.14;100.00
9717;BME280;4897;43.570;27.832;2024-02-26T02:42:42;98865.44;;;7.09;100.00
9717;BME280;4897;43.570;27.832;2024-02-26T02:45:09;98863.59;;;6.99;100.00
9717;BME280;4897;43.570;27.832;2024-02-26T02:47:36;98848.47;;;6.88;100.00
9717;BME280;4897;43.570;27.832;2024-02-26T02:50:05;98853.81;;;6.99;100.00
9717;BME280;4897;43.570;27.832;2024-02-26T02:52:32;98858.91;;;7.02;100.00
9717;BME280;4897;43.570;27.832;2024-02-26T02:55:00;98853.25;;;7.07;100.00
9717;BME280;4897;43.570;27.832;2024-02-26T02:57:27;98870.75;;;7.09;100.00
9717;BME280;4897;43.570;27.832;2024-02-26T02:59:55;98843.16;;;6.88;100.00
9717;BME280;4897;43.570;27.832;2024-02-26T03:02:22;98868.97;;;6.86;100.00
9717;BME280;4897;43.570;27.832;2024-02-26T03:04:50;98862.97;;;6.95;100.00
9717;BME280;4897;43.570;27.832;2024-02-26T03:07:17;98856.19;;;6.91;100.00
9717;BME280;4897;43.570;27.832;2024-02-26T03:09:44;98853.47;;;6.80;100.00
9717;BME280;4897;43.570;27.832;2024-02-26T03:12:12;98828.63;;;6.81;100.00
9717;BME280;4897;43.570;27.832;2024-02-26T03:14:39;98857.84;;;7.05;100.00
9717;BME280;4897;43.570;27.832;2024-02-26T03:17:06;98848.16;;;7.04;100.00
9717;BME280;4897;43.570;27.832;2024-02-26T03:19:33;98826.00;;;6.92;100.00
9717;BME280;4897;43.570;27.832;2024-02-26T03:22:00;98848.28;;;7.02;100.00
9717;BME280;4897;43.570;27.832;2024-02-26T03:24:27;98851.00;;;6.90;100.00
9717;BME280;4897;43.570;27.832;2024-02-26T03:26:54;98863.09;;;6.94;100.00
9717;BME280;4897;43.570;27.832;2024-02-26T03:29:23;98859.59;;;6.93;100.00
9717;BME280;4897;43.570;27.832;2024-02-26T03:31:50;98852.47;;;6.94;100.00
9717;BME280;4897;43.570;27.832;2024-02-26T03:34:19;98854.44;;;7.03;100.00
9717;BME280;4897;43.570;27.832;2024-02-26T03:36:46;98858.28;;;6.99;100.00
9717;BME280;4897;43.570;27.832;2024-02-26T03:39:13;98830.94;;;6.86;100.00
9717;BME280;4897;43.570;27.832;2024-02-26T03:41:40;98834.34;;;6.99;100.00
9717;BME280;4897;43.570;27.832;2024-02-26T03:44:07;98797.69;;;6.80;100.00
9717;BME280;4897;43.570;27.832;2024-02-26T03:46:35;98847.28;;;7.03;100.00
9717;BME280;4897;43.570;27.832;2024-02-26T03:49:02;98816.19;;;6.93;100.00
9717;BME280;4897;43.570;27.832;2024-02-26T03:51:29;98845.88;;;7.10;100.00
9717;BME280;4897;43.570;27.832;2024-02-26T03:53:57;98840.78;;;7.07;100.00
9717;BME280;4897;43.570;27.832;2024-02-26T03:56:25;98839.72;;;7.10;100.00
9717;BME280;4897;43.570;27.832;2024-02-26T03:58:52;98842.50;;;7.08;100.00
9717;BME280;4897;43.570;27.832;2024-02-26T04:01:21;98845.50;;;7.04;100.00
9717;BME280;4897;43.570;27.832;2024-02-26T04:03:50;98847.28;;;7.03;100.00
9717;BME280;4897;43.570;27.832;2024-02-26T04:06:18;98846.34;;;7.04;100.00
9717;BME280;4897;43.570;27.832;2024-02-26T04:08:46;98838.09;;;6.96;100.00
9717;BME280;4897;43.570;27.832;2024-02-26T04:11:13;98841.50;;;6.98;100.00
9717;BME280;4897;43.570;27.832;2024-02-26T04:13:43;98838.31;;;6.93;100.00
9717;BME280;4897;43.570;27.832;2024-02-26T04:16:11;98814.00;;;6.76;100.00
9717;BME280;4897;43.570;27.832;2024-02-26T04:18:38;98815.09;;;6.84;100.00
9717;BME280;4897;43.570;27.832;2024-02-26T04:21:07;98775.84;;;6.53;100.00
9717;BME280;4897;43.570;27.832;2024-02-26T04:23:34;98803.78;;;6.70;100.00
9717;BME280;4897;43.570;27.832;2024-02-26T04:26:01;98829.09;;;6.75;100.00
9717;BME280;4897;43.570;27.832;2024-02-26T04:28:28;98838.31;;;6.93;100.00
9717;BME280;4897;43.570;27.832;2024-02-26T04:30:55;98820.97;;;6.77;100.00
9717;BME280;4897;43.570;27.832;2024-02-26T04:33:22;98828.97;;;6.77;100.00
9717;BME280;4897;43.570;27.832;2024-02-26T04:35:49;98823.53;;;6.78;100.00
9717;BME280;4897;43.570;27.832;2024-02-26T04:38:17;98827.75;;;6.81;100.00
9717;BME280;4897;43.570;27.832;2024-02-26T04:40:44;98855.25;;;6.92;100.00
9717;BME280;4897;43.570;27.832;2024-02-26T04:43:12;98837.59;;;6.91;100.00
9717;BME280;4897;43.570;27.832;2024-02-26T04:45:39;98830.75;;;6.76;100.00
9717;BME280;4897;43.570;27.832;2024-02-26T04:48:07;98826.16;;;6.67;100.00
9717;BME280;4897;43.570;27.832;2024-02-26T04:50:34;98847.09;;;6.83;100.00
9717;BME280;4897;43.570;27.832;2024-02-26T04:53:00;98808.50;;;6.66;100.00
9717;BME280;4897;43.570;27.832;2024-02-26T04:55:29;98847.81;;;6.85;100.00
9717;BME280;4897;43.570;27.832;2024-02-26T04:57:56;98837.31;;;6.83;100.00
9717;BME280;4897;43.570;27.832;2024-02-26T05:00:23;98838.78;;;6.87;100.00
9717;BME280;4897;43.570;27.832;2024-02-26T05:02:50;98758.00;;;6.31;100.00
9717;BME280;4897;43.570;27.832;2024-02-26T05:05:17;98839.97;;;6.83;100.00
9717;BME280;4897;43.570;27.832;2024-02-26T05:07:44;98839.19;;;6.94;100.00
9717;BME280;4897;43.570;27.832;2024-02-26T05:10:11;98823.84;;;6.97;100.00
9717;BME280;4897;43.570;27.832;2024-02-26T05:12:39;98827.41;;;7.09;100.00
9717;BME280;4897;43.570;27.832;2024-02-26T05:15:09;98817.97;;;7.16;100.00
9717;BME280;4897;43.570;27.832;2024-02-26T05:17:35;98828.00;;;7.12;100.00
9717;BME280;4897;43.570;27.832;2024-02-26T05:20:03;98805.50;;;7.05;100.00
9717;BME280;4897;43.570;27.832;2024-02-26T05:22:33;98821.13;;;7.21;100.00
9717;BME280;4897;43.570;27.832;2024-02-26T05:25:00;98831.66;;;7.22;100.00
9717;BME280;4897;43.570;27.832;2024-02-26T05:27:27;98825.88;;;7.40;100.00
9717;BME280;4897;43.570;27.832;2024-02-26T05:29:55;98780.66;;;7.17;100.00
9717;BME280;4897;43.570;27.832;2024-02-26T05:32:22;98816.22;;;7.50;100.00
9717;BME280;4897;43.570;27.832;2024-02-26T05:34:49;98829.06;;;7.67;100.00
9717;BME280;4897;43.570;27.832;2024-02-26T05:37:16;98827.63;;;7.74;100.00
9717;BME280;4897;43.570;27.832;2024-02-26T05:39:43;98820.25;;;7.77;100.00
9717;BME280;4897;43.570;27.832;2024-02-26T05:42:10;98832.22;;;7.94;100.00
9717;BME280;4897;43.570;27.832;2024-02-26T05:44:37;98810.91;;;8.05;100.00
9717;BME280;4897;43.570;27.832;2024-02-26T05:47:06;98830.00;;;8.21;100.00
9717;BME280;4897;43.570;27.832;2024-02-26T05:49:32;98830.88;;;8.22;100.00
9717;BME280;4897;43.570;27.832;2024-02-26T05:51:59;98773.75;;;8.03;100.00
9717;BME280;4897;43.570;27.832;2024-02-26T05:54:26;98835.31;;;8.54;100.00
9717;BME280;4897;43.570;27.832;2024-02-26T05:56:53;98837.69;;;8.68;100.00
9717;BME280;4897;43.570;27.832;2024-02-26T05:59:20;98835.13;;;8.78;100.00
9717;BME280;4897;43.570;27.832;2024-02-26T06:01:47;98830.81;;;8.86;100.00
9717;BME280;4897;43.570;27.832;2024-02-26T06:04:15;98842.22;;;8.89;100.00
9717;BME280;4897;43.570;27.832;2024-02-26T06:06:44;98823.50;;;9.00;100.00
9717;BME280;4897;43.570;27.832;2024-02-26T06:09:11;98844.47;;;9.25;100.00
9717;BME280;4897;43.570;27.832;2024-02-26T06:11:38;98810.44;;;9.17;100.00
9717;BME280;4897;43.570;27.832;2024-02-26T06:14:05;98779.22;;;9.08;100.00
9717;BME280;4897;43.570;27.832;2024-02-26T06:16:32;98817.66;;;9.47;100.00
9717;BME280;4897;43.570;27.832;2024-02-26T06:18:59;98836.88;;;9.61;100.00
9717;BME280;4897;43.570;27.832;2024-02-26T06:21:27;98858.19;;;9.82;100.00
9717;BME280;4897;43.570;27.832;2024-02-26T06:23:54;98845.97;;;9.89;100.00
9717;BME280;4897;43.570;27.832;2024-02-26T06:26:21;98841.34;;;9.91;100.00
9717;BME280;4897;43.570;27.832;2024-02-26T06:28:48;98837.34;;;10.06;100.00
9717;BME280;4897;43.570;27.832;2024-02-26T06:31:15;98834.88;;;10.14;100.00
9717;BME280;4897;43.570;27.832;2024-02-26T06:33:43;98819.28;;;10.19;100.00
9717;BME280;4897;43.570;27.832;2024-02-26T06:36:09;98820.41;;;10.26;100.00
9717;BME280;4897;43.570;27.832;2024-02-26T06:38:38;98764.72;;;10.12;100.00
9717;BME280;4897;43.570;27.832;2024-02-26T06:41:07;98857.56;;;10.98;100.00
9717;BME280;4897;43.570;27.832;2024-02-26T06:43:34;98858.16;;;11.11;100.00
9717;BME280;4897;43.570;27.832;2024-02-26T06:46:01;98858.69;;;11.14;100.00
9717;BME280;4897;43.570;27.832;2024-02-26T06:48:28;98864.47;;;11.00;100.00
9717;BME280;4897;43.570;27.832;2024-02-26T06:50:54;98867.41;;;10.97;100.00
9717;BME280;4897;43.570;27.832;2024-02-26T06:53:21;98868.00;;;11.01;100.00
9717;BME280;4897;43.570;27.832;2024-02-26T06:55:50;98856.72;;;11.07;100.00
9717;BME280;4897;43.570;27.832;2024-02-26T06:58:17;98860.13;;;11.09;100.00
9717;BME280;4897;43.570;27.832;2024-02-26T07:00:44;98842.63;;;10.95;100.00
9717;BME280;4897;43.570;27.832;2024-02-26T07:03:11;98850.53;;;10.97;100.00
9717;BME280;4897;43.570;27.832;2024-02-26T07:05:39;98848.44;;;10.91;100.00
9717;BME280;4897;43.570;27.832;2024-02-26T07:08:06;98851.94;;;11.01;100.00
9717;BME280;4897;43.570;27.832;2024-02-26T07:10:33;98871.53;;;11.30;100.00
9717;BME280;4897;43.570;27.832;2024-02-26T07:13:02;98875.91;;;11.21;100.00
9717;BME280;4897;43.570;27.832;2024-02-26T07:15:29;98841.09;;;11.02;100.00
9717;BME280;4897;43.570;27.832;2024-02-26T07:17:55;98874.75;;;11.05;100.00
9717;BME280;4897;43.570;27.832;2024-02-26T07:20:28;98879.00;;;11.07;100.00
9717;BME280;4897;43.570;27.832;2024-02-26T07:22:55;98678.81;;;10.26;100.00
9717;BME280;4897;43.570;27.832;2024-02-26T07:25:22;98866.47;;;11.37;100.00
9717;BME280;4897;43.570;27.832;2024-02-26T07:27:49;98883.19;;;11.48;100.00
9717;BME280;4897;43.570;27.832;2024-02-26T07:30:18;98879.66;;;11.48;100.00
9717;BME280;4897;43.570;27.832;2024-02-26T07:32:45;98869.66;;;11.69;100.00
9717;BME280;4897;43.570;27.832;2024-02-26T07:35:12;98869.91;;;11.85;100.00
9717;BME280;4897;43.570;27.832;2024-02-26T07:37:39;98879.66;;;12.23;100.00
9717;BME280;4897;43.570;27.832;2024-02-26T07:40:13;98876.28;;;12.21;100.00
9717;BME280;4897;43.570;27.832;2024-02-26T07:42:40;98887.00;;;12.21;100.00
9717;BME280;4897;43.570;27.832;2024-02-26T07:45:08;98871.09;;;12.46;100.00
9717;BME280;4897;43.570;27.832;2024-02-26T07:47:36;98880.22;;;12.80;100.00
9717;BME280;4897;43.570;27.832;2024-02-26T07:50:07;98878.44;;;12.71;100.00
9717;BME280;4897;43.570;27.832;2024-02-26T07:52:34;98877.03;;;12.95;100.00
9717;BME280;4897;43.570;27.832;2024-02-26T07:55:01;98872.38;;;13.32;100.00
9717;BME280;4897;43.570;27.832;2024-02-26T07:57:28;98859.03;;;13.40;100.00
9717;BME280;4897;43.570;27.832;2024-02-26T07:59:55;98852.56;;;13.50;100.00
9717;BME280;4897;43.570;27.832;2024-02-26T08:02:22;98863.78;;;13.89;100.00
9717;BME280;4897;43.570;27.832;2024-02-26T08:04:50;98885.38;;;14.05;100.00
9717;BME280;4897;43.570;27.832;2024-02-26T08:07:17;98875.06;;;13.93;100.00
9717;BME280;4897;43.570;27.832;2024-02-26T08:09:45;98884.84;;;14.02;100.00
9717;BME280;4897;43.570;27.832;2024-02-26T08:12:12;98892.66;;;14.13;100.00
9717;BME280;4897;43.570;27.832;2024-02-26T08:14:39;98872.09;;;14.29;100.00
9717;BME280;4897;43.570;27.832;2024-02-26T08:17:07;98877.59;;;14.54;100.00
9717;BME280;4897;43.570;27.832;2024-02-26T08:19:34;98859.25;;;14.49;100.00
9717;BME280;4897;43.570;27.832;2024-02-26T08:22:03;98879.00;;;14.66;100.00
9717;BME280;4897;43.570;27.832;2024-02-26T08:24:30;98800.50;;;14.28;100.00
9717;BME280;4897;43.570;27.832;2024-02-26T08:26:57;98859.03;;;14.76;100.00
9717;BME280;4897;43.570;27.832;2024-02-26T08:29:24;98868.69;;;15.11;100.00
9717;BME280;4897;43.570;27.832;2024-02-26T08:31:51;98865.97;;;15.03;100.00
9717;BME280;4897;43.570;27.832;2024-02-26T08:34:18;98872.59;;;15.41;100.00
9717;BME280;4897;43.570;27.832;2024-02-26T08:36:45;98879.88;;;15.56;100.00
9717;BME280;4897;43.570;27.832;2024-02-26T08:39:16;98875.13;;;15.90;100.00
9717;BME280;4897;43.570;27.832;2024-02-26T08:41:43;98875.25;;;16.13;100.00
9717;BME280;4897;43.570;27.832;2024-02-26T08:44:10;98885.34;;;16.27;100.00
9717;BME280;4897;43.570;27.832;2024-02-26T08:46:36;98881.94;;;16.49;100.00
9717;BME280;4897;43.570;27.832;2024-02-26T08:49:04;98886.91;;;16.76;100.00
9717;BME280;4897;43.570;27.832;2024-02-26T08:51:31;98895.16;;;17.14;100.00
9717;BME280;4897;43.570;27.832;2024-02-26T08:53:57;98885.03;;;18.35;100.00
9717;BME280;4897;43.570;27.832;2024-02-26T08:56:26;98879.44;;;19.73;100.00
9717;BME280;4897;43.570;27.832;2024-02-26T08:58:53;98864.41;;;20.54;100.00
9717;BME280;4897;43.570;27.832;2024-02-26T09:01:22;98874.00;;;20.91;100.00
9717;BME280;4897;43.570;27.832;2024-02-26T09:03:50;98865.47;;;22.46;100.00
9717;BME280;4897;43.570;27.832;2024-02-26T09:06:17;98871.31;;;22.62;100.00
9717;BME280;4897;43.570;27.832;2024-02-26T09:08:43;98871.47;;;22.80;100.00
9717;BME280;4897;43.570;27.832;2024-02-26T09:11:10;98855.63;;;23.09;100.00
9717;BME280;4897;43.570;27.832;2024-02-26T09:13:39;98844.09;;;23.51;90.96
9717;BME280;4897;43.570;27.832;2024-02-26T09:16:06;98879.03;;;23.36;92.81
9717;BME280;4897;43.570;27.832;2024-02-26T09:18:33;98875.59;;;23.02;98.86
9717;BME280;4897;43.570;27.832;2024-02-26T09:21:04;98851.28;;;23.39;93.00
9717;BME280;4897;43.570;27.832;2024-02-26T09:23:31;98867.16;;;23.11;89.25
9717;BME280;4897;43.570;27.832;2024-02-26T09:25:58;98868.41;;;22.31;96.20
9717;BME280;4897;43.570;27.832;2024-02-26T09:28:25;98848.72;;;22.22;99.58
9717;BME280;4897;43.570;27.832;2024-02-26T09:30:53;98841.88;;;23.28;84.43
9717;BME280;4897;43.570;27.832;2024-02-26T09:33:20;98866.13;;;23.49;74.53
9717;BME280;4897;43.570;27.832;2024-02-26T09:35:47;98843.81;;;23.59;75.32
9717;BME280;4897;43.570;27.832;2024-02-26T09:38:15;98858.53;;;24.38;74.19
9717;BME280;4897;43.570;27.832;2024-02-26T09:40:42;98865.88;;;24.56;63.49
9717;BME280;4897;43.570;27.832;2024-02-26T09:43:14;98862.41;;;24.67;65.22
9717;BME280;4897;43.570;27.832;2024-02-26T09:45:42;98861.03;;;24.40;63.13
9717;BME280;4897;43.570;27.832;2024-02-26T09:48:12;98843.34;;;22.86;70.98
9717;BME280;4897;43.570;27.832;2024-02-26T09:50:40;98859.97;;;23.23;73.98
9717;BME280;4897;43.570;27.832;2024-02-26T09:53:08;98855.81;;;23.51;71.08
9717;BME280;4897;43.570;27.832;2024-02-26T09:55:36;98865.84;;;23.89;66.30
9717;BME280;4897;43.570;27.832;2024-02-26T09:58:05;98853.00;;;24.20;63.00
9717;BME280;4897;43.570;27.832;2024-02-26T10:00:37;98858.56;;;24.75;59.84
9717;BME280;4897;43.570;27.832;2024-02-26T10:03:05;98854.56;;;25.25;59.38
9717;BME280;4897;43.570;27.832;2024-02-26T10:05:35;98849.59;;;24.86;56.57
9717;BME280;4897;43.570;27.832;2024-02-26T10:08:04;98860.84;;;25.85;54.48
9717;BME280;4897;43.570;27.832;2024-02-26T10:10:32;98851.31;;;26.75;48.79
9717;BME280;4897;43.570;27.832;2024-02-26T10:13:00;98854.22;;;26.04;49.05
9717;BME280;4897;43.570;27.832;2024-02-26T10:15:27;98773.66;;;24.99;52.77
9717;BME280;4897;43.570;27.832;2024-02-26T10:17:54;98843.91;;;25.65;51.03
9717;BME280;4897;43.570;27.832;2024-02-26T10:20:23;98842.91;;;26.00;49.03
9717;BME280;4897;43.570;27.832;2024-02-26T10:22:53;98848.84;;;25.97;47.51
9717;BME280;4897;43.570;27.832;2024-02-26T10:25:20;98833.72;;;25.42;49.60
9717;BME280;4897;43.570;27.832;2024-02-26T10:27:47;98847.25;;;26.43;46.84
9717;BME280;4897;43.570;27.832;2024-02-26T10:30:16;98849.03;;;25.61;49.15
9717;BME280;4897;43.570;27.832;2024-02-26T10:32:44;98845.53;;;25.54;49.00
9717;BME280;4897;43.570;27.832;2024-02-26T10:35:11;98847.16;;;26.26;47.33
9717;BME280;4897;43.570;27.832;2024-02-26T10:37:39;98832.47;;;26.44;45.11
9717;BME280;4897;43.570;27.832;2024-02-26T10:40:10;98804.50;;;26.93;42.68
9717;BME280;4897;43.570;27.832;2024-02-26T10:42:38;98801.66;;;26.88;43.23
9717;BME280;4897;43.570;27.832;2024-02-26T10:45:05;98810.19;;;27.03;44.24
9717;BME280;4897;43.570;27.832;2024-02-26T10:47:33;98825.69;;;26.11;48.39
9717;BME280;4897;43.570;27.832;2024-02-26T10:50:02;98814.13;;;26.09;49.87
9717;BME280;4897;43.570;27.832;2024-02-26T10:52:31;98825.56;;;26.30;48.58
9717;BME280;4897;43.570;27.832;2024-02-26T10:55:01;98815.78;;;26.10;50.32
9717;BME280;4897;43.570;27.832;2024-02-26T10:57:32;98820.34;;;26.28;51.87
9717;BME280;4897;43.570;27.832;2024-02-26T11:00:03;98794.81;;;27.30;48.32
9717;BME280;4897;43.570;27.832;2024-02-26T11:02:32;98803.41;;;27.79;46.49
9717;BME280;4897;43.570;27.832;2024-02-26T11:04:59;98814.22;;;28.18;45.17
9717;BME280;4897;43.570;27.832;2024-02-26T11:07:27;98807.44;;;27.31;47.98
9717;BME280;4897;43.570;27.832;2024-02-26T11:09:55;98786.88;;;27.45;48.66
9717;BME280;4897;43.570;27.832;2024-02-26T11:12:23;98763.94;;;26.95;50.17
9717;BME280;4897;43.570;27.832;2024-02-26T11:14:52;98775.94;;;28.12;46.32
9717;BME280;4897;43.570;27.832;2024-02-26T11:17:22;98798.38;;;28.42;45.25
9717;BME280;4897;43.570;27.832;2024-02-26T11:19:50;98789.69;;;28.88;42.04
9717;BME280;4897;43.570;27.832;2024-02-26T11:22:19;98788.22;;;28.42;44.68
9717;BME280;4897;43.570;27.832;2024-02-26T11:24:47;98773.81;;;27.86;46.97
9717;BME280;4897;43.570;27.832;2024-02-26T11:27:16;98782.22;;;27.96;46.65
9717;BME280;4897;43.570;27.832;2024-02-26T11:29:47;98790.38;;;28.57;43.08
9717;BME280;4897;43.570;27.832;2024-02-26T11:32:17;98787.63;;;29.00;42.78
9717;BME280;4897;43.570;27.832;2024-02-26T11:34:44;98788.06;;;28.71;42.56
9717;BME280;4897;43.570;27.832;2024-02-26T11:37:14;98789.75;;;28.00;44.56
9717;BME280;4897;43.570;27.832;2024-02-26T11:39:42;98784.03;;;29.00;41.13
9717;BME280;4897;43.570;27.832;2024-02-26T11:42:13;98778.06;;;29.30;38.54
9717;BME280;4897;43.570;27.832;2024-02-26T11:44:40;98785.03;;;29.37;38.49
9717;BME280;4897;43.570;27.832;2024-02-26T11:47:11;98784.94;;;29.54;36.28
9717;BME280;4897;43.570;27.832;2024-02-26T11:49:40;98768.47;;;29.64;35.84
9717;BME280;4897;43.570;27.832;2024-02-26T11:52:08;98787.41;;;29.82;36.11
9717;BME280;4897;43.570;27.832;2024-02-26T11:54:46;98777.44;;;29.49;35.38
9717;BME280;4897;43.570;27.832;2024-02-26T11:57:24;98782.56;;;28.92;36.03
9717;BME280;4897;43.570;27.832;2024-02-26T11:59:51;98793.06;;;28.19;36.32
9717;BME280;4897;43.570;27.832;2024-02-26T12:02:41;98793.34;;;28.01;36.21
9717;BME280;4897;43.570;27.832;2024-02-26T12:05:12;98787.53;;;28.35;36.57
9717;BME280;4897;43.570;27.832;2024-02-26T12:07:40;98791.19;;;29.01;35.04
9717;BME280;4897;43.570;27.832;2024-02-26T12:10:25;98787.94;;;28.61;34.79
9717;BME280;4897;43.570;27.832;2024-02-26T12:12:55;98778.00;;;27.88;36.19
9717;BME280;4897;43.570;27.832;2024-02-26T12:15:30;98791.56;;;27.95;35.99
9717;BME280;4897;43.570;27.832;2024-02-26T12:17:59;98770.72;;;28.32;34.96
9717;BME280;4897;43.570;27.832;2024-02-26T12:20:28;98785.47;;;28.81;34.28
9717;BME280;4897;43.570;27.832;2024-02-26T12:22:56;98780.19;;;28.79;34.78
9717;BME280;4897;43.570;27.832;2024-02-26T12:25:24;98781.22;;;29.16;34.68
9717;BME280;4897;43.570;27.832;2024-02-26T12:27:52;98780.75;;;28.81;34.60
9717;BME280;4897;43.570;27.832;2024-02-26T12:30:20;98769.72;;;28.76;33.64
9717;BME280;4897;43.570;27.832;2024-02-26T12:32:48;98789.03;;;28.81;33.23
9717;BME280;4897;43.570;27.832;2024-02-26T12:35:15;98764.06;;;28.28;33.60
9717;BME280;4897;43.570;27.832;2024-02-26T12:37:44;98786.56;;;27.92;32.34
9717;BME280;4897;43.570;27.832;2024-02-26T12:40:12;98762.25;;;26.94;33.48
9717;BME280;4897;43.570;27.832;2024-02-26T12:42:39;98761.03;;;27.02;33.71
9717;BME280;4897;43.570;27.832;2024-02-26T12:45:07;98767.91;;;27.77;32.46
9717;BME280;4897;43.570;27.832;2024-02-26T12:47:36;98778.75;;;27.67;32.39
9717;BME280;4897;43.570;27.832;2024-02-26T12:50:05;98770.44;;;27.95;33.08
9717;BME280;4897;43.570;27.832;2024-02-26T12:52:33;98720.38;;;27.43;33.16
9717;BME280;4897;43.570;27.832;2024-02-26T12:55:03;98771.53;;;28.49;31.80
9717;BME280;4897;43.570;27.832;2024-02-26T12:57:31;98768.19;;;28.47;31.09
9717;BME280;4897;43.570;27.832;2024-02-26T12:59:59;98784.41;;;27.32;32.65
9717;BME280;4897;43.570;27.832;2024-02-26T13:02:27;98790.59;;;27.11;34.01
9717;BME280;4897;43.570;27.832;2024-02-26T13:04:54;98772.06;;;27.46;33.87
9717;BME280;4897;43.570;27.832;2024-02-26T13:07:22;98766.91;;;27.83;32.53
9717;BME280;4897;43.570;27.832;2024-02-26T13:09:49;98792.22;;;27.68;31.83